sensor_id;sensor_type;location;lat;lon;timestamp;pressure;altitude;pressure_sealevel;temperature;humidity
63556;BME280;49700;48.072;7.800;2023-04-09T00:01:04;100094.69;;;9.53;62.44
63556;BME280;49700;48.072;7.800;2023-04-09T00:03:30;100101.00;;;9.49;62.45
63556;BME280;49700;48.072;7.800;2023-04-09T00:05:55;100091.59;;;9.45;62.50
63556;BME280;49700;48.072;7.800;2023-04-09T00:08:21;100086.66;;;9.39;62.58
63556;BME280;49700;48.072;7.800;2023-04-09T00:10:51;100096.63;;;9.33;62.97
63556;BME280;49700;48.072;7.800;2023-04-09T00:13:18;100089.97;;;9.25;63.05
63556;BME280;49700;48.072;7.800;2023-04-09T00:15:44;100095.47;;;9.21;63.00
63556;BME280;49700;48.072;7.800;2023-04-09T00:18:10;100098.38;;;9.15;63.33
63556;BME280;49700;48.072;7.800;2023-04-09T00:20:35;100098.69;;;9.08;63.40
63556;BME280;49700;48.072;7.800;2023-04-09T00:23:01;100099.16;;;8.99;63.34
63556;BME280;49700;48.072;7.800;2023-04-09T00:25:26;100101.31;;;8.91;63.66
63556;BME280;49700;48.072;7.800;2023-04-09T00:27:53;100099.28;;;8.79;64.02
63556;BME280;49700;48.072;7.800;2023-04-09T00:30:19;100105.03;;;8.68;64.18
63556;BME280;49700;48.072;7.800;2023-04-09T00:32:46;100101.91;;;8.60;64.48
63556;BME280;49700;48.072;7.800;2023-04-09T00:35:11;100099.50;;;8.55;64.55
63556;BME280;49700;48.072;7.800;2023-04-09T00:37:36;100101.72;;;8.46;64.68
63556;BME280;49700;48.072;7.800;2023-04-09T00:40:03;100105.88;;;8.31;64.88
63556;BME280;49700;48.072;7.800;2023-04-09T00:42:32;100101.84;;;8.24;64.99
63556;BME280;49700;48.072;7.800;2023-04-09T00:44:58;100104.97;;;8.13;65.36
63556;BME280;49700;48.072;7.800;2023-04-09T00:47:25;100105.44;;;8.02;65.43
63556;BME280;49700;48.072;7.800;2023-04-09T00:49:51;100104.00;;;7.95;65.66
63556;BME280;49700;48.072;7.800;2023-04-09T00:52:17;100098.94;;;7.92;65.85
63556;BME280;49700;48.072;7.800;2023-04-09T00:54:42;100106.81;;;7.90;65.83
63556;BME280;49700;48.072;7.800;2023-04-09T00:57:08;100098.19;;;7.88;65.92
63556;BME280;49700;48.072;7.800;2023-04-09T00:59:35;100103.56;;;7.85;66.00
63556;BME280;49700;48.072;7.800;2023-04-09T01:02:01;100100.94;;;7.85;65.95
63556;BME280;49700;48.072;7.800;2023-04-09T01:04:26;100102.84;;;7.82;65.94
63556;BME280;49700;48.072;7.800;2023-04-09T01:07:04;100103.00;;;7.79;66.04
63556;BME280;49700;48.072;7.800;2023-04-09T01:09:37;100108.38;;;7.75;66.06
63556;BME280;49700;48.072;7.800;2023-04-09T01:12:29;100098.06;;;7.72;66.10
63556;BME280;49700;48.072;7.800;2023-04-09T01:15:10;100101.69;;;7.68;66.12
63556;BME280;49700;48.072;7.800;2023-04-09T01:17:47;100097.44;;;7.66;66.17
63556;BME280;49700;48.072;7.800;2023-04-09T01:20:24;100100.22;;;7.63;66.13
63556;BME280;49700;48.072;7.800;2023-04-09T01:28:26;100096.75;;;7.42;66.66
63556;BME280;49700;48.072;7.800;2023-04-09T01:30:59;100099.69;;;7.34;66.71
63556;BME280;49700;48.072;7.800;2023-04-09T01:33:28;100090.28;;;7.30;66.93
63556;BME280;49700;48.072;7.800;2023-04-09T01:35:54;100093.94;;;7.26;67.09
63556;BME280;49700;48.072;7.800;2023-04-09T01:38:21;100096.63;;;7.24;66.81
63556;BME280;49700;48.072;7.800;2023-04-09T01:40:49;100091.53;;;7.21;66.97
63556;BME280;49700;48.072;7.800;2023-04-09T01:43:15;100093.50;;;7.16;67.23
63556;BME280;49700;48.072;7.800;2023-04-09T01:45:43;100093.63;;;7.13;67.00
63556;BME280;49700;48.072;7.800;2023-04-09T01:48:10;100096.53;;;7.05;66.88
63556;BME280;49700;48.072;7.800;2023-04-09T01:50:36;100095.94;;;6.99;67.01
63556;BME280;49700;48.072;7.800;2023-04-09T01:53:02;100103.22;;;6.91;67.52
63556;BME280;49700;48.072;7.800;2023-04-09T01:55:28;100096.50;;;6.85;67.22
63556;BME280;49700;48.072;7.800;2023-04-09T01:57:53;100105.31;;;6.82;67.31
63556;BME280;49700;48.072;7.800;2023-04-09T02:00:19;100104.50;;;6.80;67.30
63556;BME280;49700;48.072;7.800;2023-04-09T02:02:50;100104.63;;;6.77;67.53
63556;BME280;49700;48.072;7.800;2023-04-09T02:05:20;100106.28;;;6.80;67.93
63556;BME280;49700;48.072;7.800;2023-04-09T02:07:52;100110.66;;;6.79;67.75
63556;BME280;49700;48.072;7.800;2023-04-09T02:10:21;100106.41;;;6.77;67.45
63556;BME280;49700;48.072;7.800;2023-04-09T02:12:50;100115.16;;;6.76;67.51
63556;BME280;49700;48.072;7.800;2023-04-09T02:15:16;100103.97;;;6.72;67.70
63556;BME280;49700;48.072;7.800;2023-04-09T02:17:43;100111.91;;;6.69;67.67
63556;BME280;49700;48.072;7.800;2023-04-09T02:20:09;100109.56;;;6.63;67.51
63556;BME280;49700;48.072;7.800;2023-04-09T02:22:34;100108.00;;;6.59;67.44
63556;BME280;49700;48.072;7.800;2023-04-09T02:25:00;100105.44;;;6.57;67.57
63556;BME280;49700;48.072;7.800;2023-04-09T02:27:25;100101.13;;;6.56;67.57
63556;BME280;49700;48.072;7.800;2023-04-09T02:29:50;100102.88;;;6.56;67.57
63556;BME280;49700;48.072;7.800;2023-04-09T02:32:16;100104.72;;;6.54;67.33
63556;BME280;49700;48.072;7.800;2023-04-09T02:34:41;100103.97;;;6.50;67.51
63556;BME280;49700;48.072;7.800;2023-04-09T02:37:07;100096.38;;;6.44;67.69
63556;BME280;49700;48.072;7.800;2023-04-09T02:39:32;100098.38;;;6.37;67.76
63556;BME280;49700;48.072;7.800;2023-04-09T02:41:57;100096.84;;;6.32;67.68
63556;BME280;49700;48.072;7.800;2023-04-09T02:44:25;100104.00;;;6.27;67.94
63556;BME280;49700;48.072;7.800;2023-04-09T02:46:51;100104.97;;;6.24;67.72
63556;BME280;49700;48.072;7.800;2023-04-09T02:49:17;100100.66;;;6.23;68.04
63556;BME280;49700;48.072;7.800;2023-04-09T02:51:43;100102.47;;;6.21;67.77
63556;BME280;49700;48.072;7.800;2023-04-09T02:54:08;100101.63;;;6.20;67.96
63556;BME280;49700;48.072;7.800;2023-04-09T02:56:34;100097.25;;;6.21;67.83
63556;BME280;49700;48.072;7.800;2023-04-09T02:58:59;100092.91;;;6.22;67.82
63556;BME280;49700;48.072;7.800;2023-04-09T03:01:25;100100.66;;;6.23;67.61
63556;BME280;49700;48.072;7.800;2023-04-09T03:03:50;100093.78;;;6.20;67.74
63556;BME280;49700;48.072;7.800;2023-04-09T03:06:16;100099.19;;;6.16;67.44
63556;BME280;49700;48.072;7.800;2023-04-09T03:08:42;100091.59;;;6.10;67.48
63556;BME280;49700;48.072;7.800;2023-04-09T03:11:08;100094.56;;;6.01;67.77
63556;BME280;49700;48.072;7.800;2023-04-09T03:13:33;100095.88;;;5.87;68.02
63556;BME280;49700;48.072;7.800;2023-04-09T03:15:59;100100.63;;;5.76;68.11
63556;BME280;49700;48.072;7.800;2023-04-09T03:18:25;100096.59;;;5.67;68.38
63556;BME280;49700;48.072;7.800;2023-04-09T03:20:51;100098.56;;;5.61;68.26
63556;BME280;49700;48.072;7.800;2023-04-09T03:23:16;100102.13;;;5.58;68.23
63556;BME280;49700;48.072;7.800;2023-04-09T03:25:45;100096.97;;;5.57;68.44
63556;BME280;49700;48.072;7.800;2023-04-09T03:28:13;100099.59;;;5.57;68.01
63556;BME280;49700;48.072;7.800;2023-04-09T03:30:43;100098.72;;;5.56;68.27
63556;BME280;49700;48.072;7.800;2023-04-09T03:33:08;100091.78;;;5.57;67.89
63556;BME280;49700;48.072;7.800;2023-04-09T03:35:44;100091.59;;;5.61;68.30
63556;BME280;49700;48.072;7.800;2023-04-09T03:38:11;100091.53;;;5.63;68.63
63556;BME280;49700;48.072;7.800;2023-04-09T03:40:36;100085.41;;;5.64;68.34
63556;BME280;49700;48.072;7.800;2023-04-09T03:43:02;100091.47;;;5.64;68.30
63556;BME280;49700;48.072;7.800;2023-04-09T03:45:29;100088.88;;;5.64;68.34
63556;BME280;49700;48.072;7.800;2023-04-09T03:48:07;100087.13;;;5.65;68.05
63556;BME280;49700;48.072;7.800;2023-04-09T03:50:40;100087.06;;;5.66;67.63
63556;BME280;49700;48.072;7.800;2023-04-09T03:53:07;100088.03;;;5.64;68.11
63556;BME280;49700;48.072;7.800;2023-04-09T03:55:33;100084.53;;;5.65;67.89
63556;BME280;49700;48.072;7.800;2023-04-09T03:58:02;100080.16;;;5.65;68.09
63556;BME280;49700;48.072;7.800;2023-04-09T04:00:30;100086.25;;;5.64;68.17
63556;BME280;49700;48.072;7.800;2023-04-09T04:03:13;100090.63;;;5.64;67.84
63556;BME280;49700;48.072;7.800;2023-04-09T04:06:09;100083.72;;;5.63;68.29
63556;BME280;49700;48.072;7.800;2023-04-09T04:08:59;100088.28;;;5.56;68.51
63556;BME280;49700;48.072;7.800;2023-04-09T04:11:33;100088.50;;;5.50;68.11
63556;BME280;49700;48.072;7.800;2023-04-09T04:13:58;100087.13;;;5.40;68.31
63556;BME280;49700;48.072;7.800;2023-04-09T04:16:25;100091.63;;;5.35;68.42
63556;BME280;49700;48.072;7.800;2023-04-09T04:18:51;100096.91;;;5.33;68.53
63556;BME280;49700;48.072;7.800;2023-04-09T04:21:17;100081.41;;;5.30;68.55
63556;BME280;49700;48.072;7.800;2023-04-09T04:23:47;100094.44;;;5.30;68.35
63556;BME280;49700;48.072;7.800;2023-04-09T04:26:17;100101.31;;;5.31;68.30
63556;BME280;49700;48.072;7.800;2023-04-09T04:28:43;100094.34;;;5.31;68.25
63556;BME280;49700;48.072;7.800;2023-04-09T04:31:13;100096.97;;;5.31;68.61
63556;BME280;49700;48.072;7.800;2023-04-09T04:33:40;100096.06;;;5.32;68.60
63556;BME280;49700;48.072;7.800;2023-04-09T04:36:11;100103.88;;;5.32;68.34
63556;BME280;49700;48.072;7.800;2023-04-09T04:38:44;100106.53;;;5.31;68.74
63556;BME280;49700;48.072;7.800;2023-04-09T04:41:17;100097.91;;;5.29;68.33
63556;BME280;49700;48.072;7.800;2023-04-09T04:43:50;100113.59;;;5.27;68.33
63556;BME280;49700;48.072;7.800;2023-04-09T04:46:21;100100.69;;;5.24;68.52
63556;BME280;49700;48.072;7.800;2023-04-09T04:48:47;100114.66;;;5.22;68.45
63556;BME280;49700;48.072;7.800;2023-04-09T04:51:13;100113.88;;;5.20;68.19
63556;BME280;49700;48.072;7.800;2023-04-09T04:53:44;100113.91;;;5.18;68.69
63556;BME280;49700;48.072;7.800;2023-04-09T04:56:13;100114.00;;;5.15;68.23
63556;BME280;49700;48.072;7.800;2023-04-09T04:58:41;100122.78;;;5.13;68.44
63556;BME280;49700;48.072;7.800;2023-04-09T05:01:06;100112.53;;;5.08;68.50
63556;BME280;49700;48.072;7.800;2023-04-09T05:03:32;100115.31;;;5.02;68.50
63556;BME280;49700;48.072;7.800;2023-04-09T05:06:17;100113.88;;;4.93;68.33
63556;BME280;49700;48.072;7.800;2023-04-09T05:08:44;100116.78;;;4.84;68.54
63556;BME280;49700;48.072;7.800;2023-04-09T05:11:13;100115.22;;;4.78;68.69
63556;BME280;49700;48.072;7.800;2023-04-09T05:13:41;100121.16;;;4.82;68.66
63556;BME280;49700;48.072;7.800;2023-04-09T05:16:15;100116.00;;;5.07;68.27
63556;BME280;49700;48.072;7.800;2023-04-09T05:18:42;100114.72;;;5.45;67.45
63556;BME280;49700;48.072;7.800;2023-04-09T05:21:08;100114.94;;;5.89;66.47
63556;BME280;49700;48.072;7.800;2023-04-09T05:23:34;100110.19;;;6.24;65.39
63556;BME280;49700;48.072;7.800;2023-04-09T05:25:59;100114.03;;;6.37;64.76
63556;BME280;49700;48.072;7.800;2023-04-09T05:28:33;100111.66;;;6.31;64.43
63556;BME280;49700;48.072;7.800;2023-04-09T05:31:07;100115.81;;;6.13;64.40
63556;BME280;49700;48.072;7.800;2023-04-09T05:33:41;100118.25;;;5.93;64.82
63556;BME280;49700;48.072;7.800;2023-04-09T05:36:15;100117.97;;;5.77;65.63
63556;BME280;49700;48.072;7.800;2023-04-09T05:38:41;100109.78;;;5.63;66.11
63556;BME280;49700;48.072;7.800;2023-04-09T05:41:07;100114.47;;;5.53;66.12
63556;BME280;49700;48.072;7.800;2023-04-09T05:43:39;100117.31;;;5.45;66.10
63556;BME280;49700;48.072;7.800;2023-04-09T05:46:07;100116.59;;;5.42;66.25
63556;BME280;49700;48.072;7.800;2023-04-09T05:48:34;100113.13;;;5.41;66.56
63556;BME280;49700;48.072;7.800;2023-04-09T05:51:01;100115.03;;;5.36;66.47
63556;BME280;49700;48.072;7.800;2023-04-09T05:53:27;100119.63;;;5.29;66.26
63556;BME280;49700;48.072;7.800;2023-04-09T05:55:53;100122.53;;;5.20;66.83
63556;BME280;49700;48.072;7.800;2023-04-09T05:58:23;100115.56;;;5.21;66.83
63556;BME280;49700;48.072;7.800;2023-04-09T06:00:49;100107.88;;;5.43;66.79
63556;BME280;49700;48.072;7.800;2023-04-09T06:03:16;100122.19;;;6.05;65.80
63556;BME280;49700;48.072;7.800;2023-04-09T06:05:42;100112.41;;;6.79;64.19
63556;BME280;49700;48.072;7.800;2023-04-09T06:08:08;100112.81;;;7.53;62.62
63556;BME280;49700;48.072;7.800;2023-04-09T06:10:34;100115.53;;;8.10;61.01
63556;BME280;49700;48.072;7.800;2023-04-09T06:13:02;100110.72;;;8.59;59.93
63556;BME280;49700;48.072;7.800;2023-04-09T06:15:28;100111.78;;;9.08;58.98
63556;BME280;49700;48.072;7.800;2023-04-09T06:17:54;100109.31;;;9.58;58.08
63556;BME280;49700;48.072;7.800;2023-04-09T06:20:19;100110.66;;;10.15;56.96
63556;BME280;49700;48.072;7.800;2023-04-09T06:22:45;100114.34;;;10.76;55.73
63556;BME280;49700;48.072;7.800;2023-04-09T06:25:11;100114.53;;;11.34;54.32
63556;BME280;49700;48.072;7.800;2023-04-09T06:27:36;100102.44;;;11.90;53.48
63556;BME280;49700;48.072;7.800;2023-04-09T06:30:01;100101.72;;;12.44;52.06
63556;BME280;49700;48.072;7.800;2023-04-09T06:32:27;100099.72;;;12.61;51.53
63556;BME280;49700;48.072;7.800;2023-04-09T06:34:52;100112.47;;;12.40;51.07
63556;BME280;49700;48.072;7.800;2023-04-09T06:37:18;100105.38;;;12.00;50.79
63556;BME280;49700;48.072;7.800;2023-04-09T06:39:43;100105.69;;;11.50;51.41
63556;BME280;49700;48.072;7.800;2023-04-09T06:42:09;100114.38;;;11.06;51.94
63556;BME280;49700;48.072;7.800;2023-04-09T06:44:53;100113.84;;;10.70;52.93
63556;BME280;49700;48.072;7.800;2023-04-09T06:47:19;100117.97;;;10.42;53.30
63556;BME280;49700;48.072;7.800;2023-04-09T06:49:44;100117.44;;;10.19;53.63
63556;BME280;49700;48.072;7.800;2023-04-09T06:52:10;100121.81;;;10.03;54.04
63556;BME280;49700;48.072;7.800;2023-04-09T06:54:35;100124.06;;;9.93;54.19
63556;BME280;49700;48.072;7.800;2023-04-09T06:57:00;100127.94;;;9.86;54.49
63556;BME280;49700;48.072;7.800;2023-04-09T06:59:26;100120.47;;;9.79;55.00
63556;BME280;49700;48.072;7.800;2023-04-09T07:01:51;100122.31;;;9.77;55.08
63556;BME280;49700;48.072;7.800;2023-04-09T07:04:17;100128.41;;;9.77;55.11
63556;BME280;49700;48.072;7.800;2023-04-09T07:06:42;100128.34;;;9.79;54.92
63556;BME280;49700;48.072;7.800;2023-04-09T07:09:08;100131.59;;;9.84;54.75
63556;BME280;49700;48.072;7.800;2023-04-09T07:11:33;100129.63;;;9.87;54.57
63556;BME280;49700;48.072;7.800;2023-04-09T07:13:59;100133.81;;;9.91;54.20
63556;BME280;49700;48.072;7.800;2023-04-09T07:16:24;100123.75;;;10.00;54.08
63556;BME280;49700;48.072;7.800;2023-04-09T07:18:51;100130.28;;;10.08;53.85
63556;BME280;49700;48.072;7.800;2023-04-09T07:21:16;100126.31;;;10.17;53.23
63556;BME280;49700;48.072;7.800;2023-04-09T07:23:42;100128.47;;;10.26;53.10
63556;BME280;49700;48.072;7.800;2023-04-09T07:26:08;100135.09;;;10.33;52.72
63556;BME280;49700;48.072;7.800;2023-04-09T07:28:34;100135.34;;;10.45;52.67
63556;BME280;49700;48.072;7.800;2023-04-09T07:31:00;100139.22;;;11.01;51.75
63556;BME280;49700;48.072;7.800;2023-04-09T07:33:27;100132.81;;;11.95;49.64
63556;BME280;49700;48.072;7.800;2023-04-09T07:35:53;100135.47;;;12.93;47.36
63556;BME280;49700;48.072;7.800;2023-04-09T07:38:18;100130.00;;;13.88;44.85
63556;BME280;49700;48.072;7.800;2023-04-09T07:40:44;100126.38;;;14.77;43.14
63556;BME280;49700;48.072;7.800;2023-04-09T07:43:10;100132.00;;;15.67;41.59
63556;BME280;49700;48.072;7.800;2023-04-09T07:45:35;100124.41;;;16.75;39.25
63556;BME280;49700;48.072;7.800;2023-04-09T07:48:00;100120.13;;;17.81;36.43
63556;BME280;49700;48.072;7.800;2023-04-09T07:50:26;100113.91;;;18.32;35.32
63556;BME280;49700;48.072;7.800;2023-04-09T07:52:51;100116.09;;;18.67;34.68
63556;BME280;49700;48.072;7.800;2023-04-09T07:55:17;100117.69;;;18.79;34.43
63556;BME280;49700;48.072;7.800;2023-04-09T07:57:43;100125.00;;;18.97;34.24
63556;BME280;49700;48.072;7.800;2023-04-09T08:00:09;100114.06;;;19.19;32.89
63556;BME280;49700;48.072;7.800;2023-04-09T08:02:42;100105.94;;;19.21;32.39
63556;BME280;49700;48.072;7.800;2023-04-09T08:05:08;100113.09;;;19.11;32.20
63556;BME280;49700;48.072;7.800;2023-04-09T08:07:33;100117.13;;;18.95;31.83
63556;BME280;49700;48.072;7.800;2023-04-09T08:09:59;100115.28;;;18.76;32.26
63556;BME280;49700;48.072;7.800;2023-04-09T08:12:24;100121.31;;;18.78;32.06
63556;BME280;49700;48.072;7.800;2023-04-09T08:14:50;100118.00;;;18.96;32.10
63556;BME280;49700;48.072;7.800;2023-04-09T08:17:15;100112.53;;;19.27;31.45
63556;BME280;49700;48.072;7.800;2023-04-09T08:19:40;100114.03;;;19.58;31.11
63556;BME280;49700;48.072;7.800;2023-04-09T08:22:06;100112.91;;;19.71;30.45
63556;BME280;49700;48.072;7.800;2023-04-09T08:24:31;100113.91;;;19.50;30.10
63556;BME280;49700;48.072;7.800;2023-04-09T08:26:57;100125.81;;;19.17;30.15
63556;BME280;49700;48.072;7.800;2023-04-09T08:29:22;100113.34;;;18.78;30.37
63556;BME280;49700;48.072;7.800;2023-04-09T08:31:48;100112.31;;;18.70;30.50
63556;BME280;49700;48.072;7.800;2023-04-09T08:34:13;100111.81;;;18.86;30.49
63556;BME280;49700;48.072;7.800;2023-04-09T08:36:44;100111.81;;;19.05;30.46
63556;BME280;49700;48.072;7.800;2023-04-09T08:39:09;100109.31;;;18.94;29.75
63556;BME280;49700;48.072;7.800;2023-04-09T08:41:40;100111.97;;;18.94;29.94
63556;BME280;49700;48.072;7.800;2023-04-09T08:44:06;100109.88;;;19.07;29.41
63556;BME280;49700;48.072;7.800;2023-04-09T08:46:35;100105.78;;;19.22;29.10
63556;BME280;49700;48.072;7.800;2023-04-09T08:49:00;100105.06;;;19.30;29.02
63556;BME280;49700;48.072;7.800;2023-04-09T08:51:26;100107.34;;;19.15;29.32
63556;BME280;49700;48.072;7.800;2023-04-09T08:53:57;100109.03;;;18.97;29.59
63556;BME280;49700;48.072;7.800;2023-04-09T08:56:23;100101.16;;;18.76;29.98
63556;BME280;49700;48.072;7.800;2023-04-09T08:58:49;100105.69;;;18.45;30.20
63556;BME280;49700;48.072;7.800;2023-04-09T09:01:27;100108.53;;;18.22;30.62
63556;BME280;49700;48.072;7.800;2023-04-09T09:06:40;100114.88;;;17.16;31.98
63556;BME280;49700;48.072;7.800;2023-04-09T09:09:14;100116.88;;;17.03;32.26
63556;BME280;49700;48.072;7.800;2023-04-09T09:11:42;100108.81;;;17.05;32.27
63556;BME280;49700;48.072;7.800;2023-04-09T09:14:09;100115.81;;;16.94;32.51
63556;BME280;49700;48.072;7.800;2023-04-09T09:16:37;100115.88;;;16.83;32.42
63556;BME280;49700;48.072;7.800;2023-04-09T09:19:27;100113.53;;;16.90;31.95
63556;BME280;49700;48.072;7.800;2023-04-09T09:21:57;100113.81;;;16.75;32.24
63556;BME280;49700;48.072;7.800;2023-04-09T09:24:23;100106.94;;;16.73;32.51
63556;BME280;49700;48.072;7.800;2023-04-09T09:26:48;100099.09;;;16.83;32.53
63556;BME280;49700;48.072;7.800;2023-04-09T09:29:13;100095.84;;;16.79;32.30
63556;BME280;49700;48.072;7.800;2023-04-09T09:31:47;100097.47;;;16.48;33.10
63556;BME280;49700;48.072;7.800;2023-04-09T09:34:14;100094.09;;;16.46;33.46
63556;BME280;49700;48.072;7.800;2023-04-09T09:36:41;100092.75;;;16.51;34.08
63556;BME280;49700;48.072;7.800;2023-04-09T09:39:06;100094.00;;;16.47;34.54
63556;BME280;49700;48.072;7.800;2023-04-09T09:41:36;100090.59;;;16.45;34.94
63556;BME280;49700;48.072;7.800;2023-04-09T09:44:02;100089.75;;;16.56;34.99
63556;BME280;49700;48.072;7.800;2023-04-09T09:46:35;100090.47;;;16.58;34.97
63556;BME280;49700;48.072;7.800;2023-04-09T09:49:02;100093.13;;;16.58;34.91
63556;BME280;49700;48.072;7.800;2023-04-09T09:51:30;100082.59;;;16.68;34.86
63556;BME280;49700;48.072;7.800;2023-04-09T09:53:56;100075.81;;;16.86;34.74
63556;BME280;49700;48.072;7.800;2023-04-09T09:56:24;100072.22;;;17.08;34.50
63556;BME280;49700;48.072;7.800;2023-04-09T09:59:01;100070.47;;;17.18;34.52
63556;BME280;49700;48.072;7.800;2023-04-09T10:01:31;100068.84;;;17.06;34.70
63556;BME280;49700;48.072;7.800;2023-04-09T10:03:58;100061.84;;;17.05;34.73
63556;BME280;49700;48.072;7.800;2023-04-09T10:06:24;100065.44;;;17.15;34.33
63556;BME280;49700;48.072;7.800;2023-04-09T10:08:56;100067.31;;;17.24;33.64
63556;BME280;49700;48.072;7.800;2023-04-09T10:11:21;100071.97;;;17.32;33.23
63556;BME280;49700;48.072;7.800;2023-04-09T10:13:49;100065.56;;;17.35;33.04
63556;BME280;49700;48.072;7.800;2023-04-09T10:16:16;100065.59;;;17.02;31.77
63556;BME280;49700;48.072;7.800;2023-04-09T10:18:41;100063.28;;;16.88;32.30
63556;BME280;49700;48.072;7.800;2023-04-09T10:23:51;100057.25;;;16.86;32.29
63556;BME280;49700;48.072;7.800;2023-04-09T10:26:18;100066.28;;;16.84;31.88
63556;BME280;49700;48.072;7.800;2023-04-09T10:28:44;100060.41;;;16.80;31.70
63556;BME280;49700;48.072;7.800;2023-04-09T10:31:09;100055.56;;;16.85;31.76
63556;BME280;49700;48.072;7.800;2023-04-09T10:33:37;100046.56;;;16.97;31.68
63556;BME280;49700;48.072;7.800;2023-04-09T10:36:05;100050.31;;;16.95;31.83
63556;BME280;49700;48.072;7.800;2023-04-09T10:38:34;100054.00;;;17.03;32.20
63556;BME280;49700;48.072;7.800;2023-04-09T10:41:29;100054.16;;;17.02;32.54
63556;BME280;49700;48.072;7.800;2023-04-09T10:43:56;100056.81;;;17.02;33.06
63556;BME280;49700;48.072;7.800;2023-04-09T10:46:29;100046.97;;;17.14;33.06
63556;BME280;49700;48.072;7.800;2023-04-09T10:49:11;100035.41;;;17.15;32.55
63556;BME280;49700;48.072;7.800;2023-04-09T10:51:39;100034.16;;;17.19;32.71
63556;BME280;49700;48.072;7.800;2023-04-09T10:59:36;100030.13;;;17.45;32.73
63556;BME280;49700;48.072;7.800;2023-04-09T11:02:32;100026.41;;;17.58;32.93
63556;BME280;49700;48.072;7.800;2023-04-09T11:07:51;100025.34;;;17.70;32.69
63556;BME280;49700;48.072;7.800;2023-04-09T11:10:18;100034.16;;;17.70;32.32
63556;BME280;49700;48.072;7.800;2023-04-09T11:12:46;100023.53;;;17.70;32.31
63556;BME280;49700;48.072;7.800;2023-04-09T11:15:16;100020.91;;;17.50;31.32
63556;BME280;49700;48.072;7.800;2023-04-09T11:17:42;100026.13;;;17.30;31.38
63556;BME280;49700;48.072;7.800;2023-04-09T11:20:09;100017.00;;;17.23;31.68
63556;BME280;49700;48.072;7.800;2023-04-09T11:22:35;100021.41;;;17.34;31.36
63556;BME280;49700;48.072;7.800;2023-04-09T11:25:00;100021.44;;;17.43;31.15
63556;BME280;49700;48.072;7.800;2023-04-09T11:27:26;100009.97;;;17.43;30.81
63556;BME280;49700;48.072;7.800;2023-04-09T11:29:55;100009.16;;;17.42;30.60
63556;BME280;49700;48.072;7.800;2023-04-09T11:32:20;100006.63;;;17.20;30.32
63556;BME280;49700;48.072;7.800;2023-04-09T11:34:45;100014.72;;;16.97;30.53
63556;BME280;49700;48.072;7.800;2023-04-09T11:37:15;100002.16;;;16.78;30.29
63556;BME280;49700;48.072;7.800;2023-04-09T11:39:44;100007.59;;;16.77;30.64
63556;BME280;49700;48.072;7.800;2023-04-09T11:42:13;100007.41;;;16.90;31.08
63556;BME280;49700;48.072;7.800;2023-04-09T11:44:39;100000.25;;;17.01;30.85
63556;BME280;49700;48.072;7.800;2023-04-09T11:47:06;100010.19;;;16.88;31.10
63556;BME280;49700;48.072;7.800;2023-04-09T11:49:33;100004.94;;;16.77;30.91
63556;BME280;49700;48.072;7.800;2023-04-09T11:51:58;99997.59;;;16.69;30.99
63556;BME280;49700;48.072;7.800;2023-04-09T11:54:31;99999.16;;;16.60;31.32
63556;BME280;49700;48.072;7.800;2023-04-09T11:57:02;99997.91;;;16.76;31.58
63556;BME280;49700;48.072;7.800;2023-04-09T11:59:28;99998.94;;;16.96;31.49
63556;BME280;49700;48.072;7.800;2023-04-09T12:01:56;100001.13;;;17.12;31.34
63556;BME280;49700;48.072;7.800;2023-04-09T12:04:25;99997.25;;;17.16;30.68
63556;BME280;49700;48.072;7.800;2023-04-09T12:06:55;99997.72;;;17.00;30.67
63556;BME280;49700;48.072;7.800;2023-04-09T12:09:23;99995.88;;;17.00;30.87
63556;BME280;49700;48.072;7.800;2023-04-09T12:11:48;99991.88;;;17.06;30.28
63556;BME280;49700;48.072;7.800;2023-04-09T12:14:15;99994.97;;;17.11;30.29
63556;BME280;49700;48.072;7.800;2023-04-09T12:16:41;99989.63;;;17.01;30.03
63556;BME280;49700;48.072;7.800;2023-04-09T12:19:11;99992.47;;;16.89;30.62
63556;BME280;49700;48.072;7.800;2023-04-09T12:21:51;99984.03;;;16.84;30.48
63556;BME280;49700;48.072;7.800;2023-04-09T12:24:19;99991.06;;;16.73;30.36
63556;BME280;49700;48.072;7.800;2023-04-09T12:26:46;99980.59;;;16.72;30.32
63556;BME280;49700;48.072;7.800;2023-04-09T12:29:13;99983.81;;;16.75;30.19
63556;BME280;49700;48.072;7.800;2023-04-09T12:31:40;99982.53;;;16.70;30.04
63556;BME280;49700;48.072;7.800;2023-04-09T12:34:06;99973.31;;;16.74;30.30
63556;BME280;49700;48.072;7.800;2023-04-09T12:36:32;99972.00;;;16.79;30.41
63556;BME280;49700;48.072;7.800;2023-04-09T12:38:57;99963.41;;;16.87;30.51
63556;BME280;49700;48.072;7.800;2023-04-09T12:41:23;99966.25;;;16.95;30.28
63556;BME280;49700;48.072;7.800;2023-04-09T12:43:49;99963.31;;;16.98;30.23
63556;BME280;49700;48.072;7.800;2023-04-09T12:46:16;99958.63;;;17.02;30.34
63556;BME280;49700;48.072;7.800;2023-04-09T12:48:42;99960.88;;;17.07;30.15
63556;BME280;49700;48.072;7.800;2023-04-09T12:51:07;99959.84;;;16.98;29.89
63556;BME280;49700;48.072;7.800;2023-04-09T12:53:35;99961.38;;;17.00;30.04
63556;BME280;49700;48.072;7.800;2023-04-09T12:56:01;99959.72;;;16.99;30.12
63556;BME280;49700;48.072;7.800;2023-04-09T12:58:27;99963.22;;;17.00;30.11
63556;BME280;49700;48.072;7.800;2023-04-09T13:00:53;99962.81;;;17.05;30.29
63556;BME280;49700;48.072;7.800;2023-04-09T13:03:19;99956.28;;;17.09;30.45
63556;BME280;49700;48.072;7.800;2023-04-09T13:05:45;99948.50;;;17.17;30.38
63556;BME280;49700;48.072;7.800;2023-04-09T13:08:11;99952.84;;;17.18;30.34
63556;BME280;49700;48.072;7.800;2023-04-09T13:10:36;99958.41;;;17.15;30.17
63556;BME280;49700;48.072;7.800;2023-04-09T13:13:02;99950.88;;;17.20;30.30
63556;BME280;49700;48.072;7.800;2023-04-09T13:15:27;99941.44;;;17.27;30.34
63556;BME280;49700;48.072;7.800;2023-04-09T13:17:53;99937.72;;;17.39;30.23